Sign in

Advertising

Info

Aviation weather - KDAB

METAR KDAB 271553Z 06009KT 10SM FEW025 SCT036 BKN250 31/23 A3001 RMK AO2 SLP160 CB DSNT N-NE T03110228

TAF KDAB 271426Z 2714/2812 05012KT P6SM VCSH BKN025 BKN150 FM271700 06010KT P6SM SCT025 BKN250

Aviation weather from ADDS. Re-check weather before flight.

-